Time;durP1;ratioP1;P1;durP2;ratioP2;P2;SDS_P1;SDS_P2;PMS_P1;PMS_P2;Temp;Humidity;BMP_temperature;BMP_pressure;BME280_temperature;BME280_humidity;BME280_pressure;Samples;Min_cycle;Max_cycle;Signal;HPM_P1;HPM_P2
2024/03/27 00:02:07;;;;;;;21.00;12.63;;;5.80;99.90;;;10.68;86.49;98093.28;5042254;28;20073;-81
2024/03/27 00:04:34;;;;;;;20.80;12.65;;;5.70;99.90;;;10.45;90.38;98095.56;5042289;28;20041;-79
2024/03/27 00:07:00;;;;;;;25.10;12.55;;;5.70;99.90;;;10.46;89.91;98091.75;5041735;28;20045;-80
2024/03/27 00:09:26;;;;;;;23.15;13.52;;;5.60;99.90;;;9.81;92.44;98084.22;5018588;28;20040;-80
2024/03/27 00:11:52;;;;;;;22.48;12.88;;;5.50;99.90;;;9.14;100.00;98106.00;5017590;28;20473;-79
2024/03/27 00:14:19;;;;;;;24.15;14.10;;;5.50;99.90;;;9.25;100.00;98096.75;5034688;28;20045;-79
2024/03/27 00:16:45;;;;;;;21.20;12.75;;;5.60;99.90;;;10.04;98.20;98082.84;5034537;28;20408;-81
2024/03/27 00:19:12;;;;;;;21.20;12.82;;;5.60;99.90;;;10.28;93.05;98070.50;5034801;28;20116;-79
2024/03/27 00:21:37;;;;;;;22.97;13.37;;;5.40;99.90;;;10.21;91.18;98068.91;5034221;28;20037;-80
2024/03/27 00:24:03;;;;;;;21.55;13.10;;;5.40;99.90;;;9.98;91.58;98067.63;5034418;28;20072;-80
2024/03/27 00:26:30;;;;;;;25.73;13.90;;;5.20;99.90;;;9.49;94.26;98066.31;5034131;28;20045;-80
2024/03/27 00:28:56;;;;;;;22.88;13.23;;;5.10;99.90;;;9.32;97.65;98074.75;5034422;28;20473;-80
2024/03/27 00:31:22;;;;;;;22.42;13.48;;;5.20;99.90;;;9.67;97.31;98077.72;5033811;28;20037;-80
2024/03/27 00:33:47;;;;;;;22.20;13.50;;;5.30;99.90;;;9.88;93.25;98079.34;5034027;28;20041;-80
2024/03/27 00:36:13;;;;;;;20.98;12.93;;;5.30;99.90;;;10.09;90.86;98071.13;5034070;28;20369;-79
2024/03/27 00:38:39;;;;;;;20.58;12.65;;;5.40;99.90;;;10.33;87.87;98054.13;5033873;28;20087;-80
2024/03/27 00:41:05;;;;;;;24.08;13.65;;;5.50;99.90;;;10.49;85.40;98074.03;5034127;28;20037;-80
2024/03/27 00:43:30;;;;;;;21.63;12.30;;;5.50;99.90;;;10.48;85.79;98067.75;5034324;28;20048;-80
2024/03/27 00:45:56;;;;;;;20.80;12.75;;;5.60;99.90;;;10.69;83.25;98069.53;5016306;28;20057;-79
2024/03/27 00:48:22;;;;;;;20.95;12.55;;;5.50;99.90;;;10.69;81.77;98069.53;5034420;28;20037;-79
2024/03/27 00:50:48;;;;;;;20.55;12.55;;;5.40;99.90;;;10.67;80.80;98056.22;5033861;28;20029;-80
2024/03/27 00:53:14;;;;;;;20.33;12.93;;;5.30;99.90;;;10.55;80.28;98044.81;5034362;28;20056;-80
2024/03/27 00:55:40;;;;;;;20.50;12.23;;;5.10;99.90;;;10.43;80.75;98054.13;5016251;28;20477;-80
2024/03/27 00:58:05;;;;;;;21.63;12.95;;;4.90;99.90;;;9.86;85.79;98054.28;5034061;28;20566;-80
2024/03/27 01:00:31;;;;;;;24.65;13.20;;;4.80;99.90;;;9.82;84.63;98049.66;5016223;28;20397;-80
2024/03/27 01:02:57;;;;;;;22.75;13.50;;;4.70;99.90;;;8.55;94.36;98046.31;5033794;28;20045;-78
2024/03/27 01:05:22;;;;;;;22.80;13.80;;;4.60;99.90;;;8.51;100.00;98060.75;5033623;28;20046;-78
2024/03/27 01:07:49;;;;;;;24.45;14.43;;;4.70;99.90;;;8.65;100.00;98059.13;5034346;28;20038;-78
2024/03/27 01:10:14;;;;;;;23.38;13.98;;;4.90;99.90;;;8.91;100.00;98051.88;5017428;28;20044;-78
2024/03/27 01:12:41;;;;;;;22.25;13.50;;;5.10;99.90;;;9.17;98.65;98034.75;5035256;28;20029;-78
2024/03/27 01:15:07;;;;;;;20.83;13.32;;;5.10;99.90;;;9.36;96.23;98045.91;5035818;28;20389;-78
2024/03/27 01:17:33;;;;;;;21.98;13.10;;;5.10;99.90;;;9.64;93.41;98051.88;5035957;28;20034;-78
2024/03/27 01:20:00;;;;;;;22.65;12.90;;;4.90;99.90;;;9.50;91.32;98041.53;5016428;28;20104;-79
2024/03/27 01:22:26;;;;;;;23.45;13.70;;;4.80;99.90;;;8.47;98.50;98042.19;5033979;28;20034;-78
2024/03/27 01:24:52;;;;;;;25.42;14.30;;;4.70;99.90;;;8.18;100.00;98044.53;5033564;28;20055;-79
2024/03/27 01:27:18;;;;;;;24.85;14.73;;;4.60;99.90;;;8.10;100.00;98031.47;5033113;28;20041;-79
2024/03/27 01:29:45;;;;;;;25.73;14.90;;;4.50;99.90;;;8.11;100.00;98031.19;5015403;28;20041;-78
2024/03/27 01:32:11;;;;;;;26.67;14.07;;;4.40;99.90;;;8.11;100.00;98028.47;5032994;28;20075;-79
2024/03/27 01:34:37;;;;;;;26.08;14.43;;;4.40;99.90;;;8.20;100.00;98018.72;5048503;28;20314;-79
2024/03/27 01:37:03;;;;;;;23.23;13.68;;;4.40;99.90;;;8.24;100.00;98013.59;5033050;28;20033;-79
2024/03/27 01:39:28;;;;;;;24.15;14.27;;;4.40;99.90;;;8.77;100.00;98037.97;5033042;28;20116;-79
2024/03/27 01:41:54;;;;;;;25.92;14.43;;;4.60;99.90;;;8.96;99.65;98039.38;5032500;28;20048;-79
2024/03/27 01:44:20;;;;;;;24.77;14.13;;;4.70;99.90;;;9.41;96.94;98036.94;5033212;28;20116;-79
2024/03/27 01:46:51;;;;;;;25.92;14.75;;;4.70;99.90;;;9.82;90.90;98017.81;5032901;28;20045;-79
2024/03/27 01:49:18;;;;;;;24.20;13.80;;;4.70;99.90;;;9.80;89.09;98017.25;5032868;28;20092;-79
2024/03/27 01:51:45;;;;;;;24.83;13.57;;;4.60;99.90;;;9.50;87.85;98018.94;5032868;28;20076;-78
2024/03/27 01:54:15;;;;;;;24.65;13.98;;;4.50;99.90;;;9.15;93.19;98028.75;5032726;28;20033;-79
2024/03/27 01:56:41;;;;;;;21.00;13.50;;;4.50;99.90;;;8.64;97.81;98035.75;5032603;28;20037;-79
2024/03/27 01:59:08;;;;;;;23.90;14.73;;;4.50;99.90;;;8.28;100.00;98017.41;5032448;28;20049;-79
2024/03/27 02:01:35;;;;;;;20.88;13.02;;;4.50;99.90;;;8.40;100.00;98022.63;5032592;28;20042;-78
2024/03/27 02:04:02;;;;;;;23.53;14.13;;;4.60;99.90;;;8.48;100.00;98018.56;5047933;28;20035;-78
2024/03/27 02:06:28;;;;;;;23.20;14.50;;;4.50;99.90;;;9.00;98.86;98005.91;5032478;28;20120;-79
2024/03/27 02:08:53;;;;;;;23.02;13.50;;;4.40;99.90;;;9.34;92.65;98002.66;5032470;28;20409;-78
2024/03/27 02:11:21;;;;;;;22.60;13.48;;;4.30;99.90;;;9.28;90.46;97997.47;5032454;28;20512;-79
2024/03/27 02:13:47;;;;;;;;;;;4.20;99.90;;;9.18;90.36;98003.72;5015083;28;20049;-79
2024/03/27 02:16:14;;;;;;;23.00;12.48;;;4.00;99.90;;;8.82;91.37;98001.00;5032329;28;19990;-79
2024/03/27 02:18:39;;;;;;;22.83;13.68;;;4.00;99.90;;;8.47;97.67;98004.16;5014652;28;20116;-79
2024/03/27 02:21:10;;;;;;;22.45;13.15;;;3.90;99.90;;;8.52;100.00;98006.09;5032287;28;20037;-78
2024/03/27 02:23:53;;;;;;;24.13;14.68;;;3.90;99.90;;;8.25;100.00;97996.22;5032350;28;20120;-79
2024/03/27 02:26:32;;;;;;;23.90;14.13;;;4.10;99.90;;;8.59;100.00;97995.00;5032130;28;20037;-79
2024/03/27 02:28:58;;;;;;;23.00;13.85;;;4.20;99.90;;;8.59;99.98;97986.84;5049893;28;20045;-78
2024/03/27 02:31:24;;;;;;;21.17;13.13;;;4.20;99.90;;;8.43;99.32;97981.31;5052165;28;20052;-79
2024/03/27 02:33:49;;;;;;;25.15;14.98;;;4.20;99.90;;;8.38;99.97;97975.88;5052001;28;20369;-79
2024/03/27 02:36:15;;;;;;;23.33;13.32;;;4.10;99.90;;;7.88;100.00;97959.16;5017788;28;20087;-79
2024/03/27 02:38:41;;;;;;;22.85;13.43;;;4.10;99.90;;;8.07;100.00;97951.34;5052026;28;20090;-79
2024/03/27 02:41:06;;;;;;;25.75;14.27;;;4.00;99.90;;;8.43;100.00;97975.88;5034384;28;20106;-79
2024/03/27 02:43:32;;;;;;;25.05;14.00;;;3.90;99.90;;;8.54;97.85;97956.94;5017686;28;20032;-79
2024/03/27 02:45:58;;;;;;;24.88;14.35;;;3.80;99.90;;;8.34;98.41;97955.78;5052013;28;20049;-79
2024/03/27 02:48:23;;;;;;;25.42;13.52;;;3.70;99.90;;;8.33;98.53;97949.50;5051982;28;20103;-78
2024/03/27 02:50:49;;;;;;;25.02;13.73;;;3.60;99.90;;;8.41;99.36;97952.81;5051988;28;20066;-78
2024/03/27 02:53:15;;;;;;;29.70;15.30;;;3.60;99.90;;;8.10;98.98;97950.81;5035776;28;20044;-78
2024/03/27 02:55:41;;;;;;;25.00;14.43;;;3.60;99.90;;;8.51;98.57;97957.47;5037991;28;20029;-78
2024/03/27 02:58:06;;;;;;;25.98;14.40;;;3.60;99.90;;;8.28;99.43;97949.50;5038148;28;20123;-79
2024/03/27 03:00:32;;;;;;;27.80;15.45;;;3.60;99.90;;;8.27;100.00;97950.59;5055951;28;20076;-79
2024/03/27 03:02:58;;;;;;;25.67;15.00;;;3.60;99.90;;;8.46;97.81;97940.03;5054656;28;20102;-79
2024/03/27 03:05:23;;;;;;;27.75;14.95;;;3.50;99.90;;;7.81;99.83;97945.81;5055901;28;20048;-79
2024/03/27 03:07:49;;;;;;;26.98;14.38;;;3.50;99.90;;;7.77;100.00;97942.81;5055711;28;20048;-79
2024/03/27 03:10:15;;;;;;;27.88;15.02;;;3.50;99.90;;;7.71;100.00;97937.66;5038054;28;20039;-79
2024/03/27 03:12:41;;;;;;;29.00;16.45;;;3.50;99.90;;;7.70;100.00;97912.38;5055674;28;20033;-79
2024/03/27 03:15:07;;;;;;;29.65;16.13;;;3.50;99.90;;;7.24;100.00;97912.97;5037360;28;20507;-79
2024/03/27 03:17:33;;;;;;;28.55;16.35;;;3.50;99.90;;;7.29;100.00;97923.84;5055355;28;20033;-79
2024/03/27 03:19:58;;;;;;;30.58;16.58;;;3.50;99.90;;;7.30;100.00;97911.91;5054298;28;20102;-79
2024/03/27 03:22:24;;;;;;;30.83;16.50;;;3.60;99.90;;;7.42;100.00;97909.00;5037600;28;20049;-78
2024/03/27 03:24:50;;;;;;;29.40;16.67;;;3.70;99.90;;;7.73;100.00;97905.63;5055179;28;20060;-79
2024/03/27 03:27:16;;;;;;;29.77;17.23;;;3.70;99.90;;;7.41;100.00;97903.81;5055112;28;20044;-79
2024/03/27 03:29:43;;;;;;;31.65;17.17;;;3.70;99.90;;;7.57;100.00;97916.41;5053932;28;20033;-78
2024/03/27 03:32:09;;;;;;;31.60;17.63;;;3.70;99.90;;;7.56;100.00;97900.38;5037219;28;20489;-79
2024/03/27 03:34:34;;;;;;;32.30;17.05;;;3.70;99.90;;;8.23;100.00;97916.09;5055027;28;20045;-79
2024/03/27 03:37:00;;;;;;;31.95;16.85;;;3.70;99.90;;;8.63;100.00;97906.38;5054917;28;20040;-79
2024/03/27 03:39:26;;;;;;;28.73;15.52;;;3.70;99.90;;;8.71;98.35;97910.47;5054909;28;20033;-79
2024/03/27 03:41:51;;;;;;;32.38;16.33;;;3.60;99.90;;;8.30;97.79;97903.06;5054891;28;20400;-78
2024/03/27 03:44:17;;;;;;;30.83;16.45;;;3.50;99.90;;;7.69;100.00;97912.63;5054953;28;20037;-79
2024/03/27 03:46:43;;;;;;;33.15;16.40;;;3.50;99.90;;;7.72;100.00;97902.09;5036796;28;20318;-79
2024/03/27 03:49:09;;;;;;;31.98;17.23;;;3.50;99.90;;;7.92;100.00;97890.47;5037082;28;20048;-79
2024/03/27 03:51:34;;;;;;;31.83;18.35;;;3.60;99.90;;;7.66;100.00;97894.19;5053415;28;20064;-79
2024/03/27 03:54:04;;;;;;;35.10;18.02;;;3.60;99.90;;;7.60;100.00;97888.72;5036762;28;20039;-79
2024/03/27 03:56:30;;;;;;;37.10;17.63;;;3.70;99.90;;;7.47;100.00;97886.53;5054489;28;20511;-79
2024/03/27 03:58:55;;;;;;;36.40;18.92;;;3.70;99.90;;;7.54;100.00;97889.81;5054523;28;20053;-79
2024/03/27 04:01:21;;;;;;;31.27;18.58;;;3.80;99.90;;;7.38;100.00;97890.78;5054622;28;20044;-79
2024/03/27 04:03:47;;;;;;;36.60;19.30;;;3.90;99.90;;;7.47;100.00;97862.09;5054371;28;20392;-79
2024/03/27 04:06:12;;;;;;;35.83;19.65;;;3.90;99.90;;;7.88;100.00;97883.16;5036076;28;20477;-79
2024/03/27 04:08:38;;;;;;;35.70;17.77;;;3.80;99.90;;;7.85;100.00;97889.13;5054282;28;20146;-79
2024/03/27 04:11:05;;;;;;;33.17;18.38;;;3.80;99.90;;;8.09;100.00;97902.19;5054594;28;20040;-79
2024/03/27 04:13:30;;;;;;;33.40;18.23;;;3.80;99.90;;;7.76;100.00;97880.66;5054317;28;20037;-78
2024/03/27 04:15:56;;;;;;;33.65;18.17;;;3.80;99.90;;;8.38;100.00;97886.22;5036642;28;20044;-79
2024/03/27 04:18:22;;;;;;;32.53;18.48;;;3.80;99.90;;;8.07;100.00;97861.75;5054382;28;20496;-79
2024/03/27 04:20:47;;;;;;;32.28;18.15;;;3.60;99.90;;;8.56;99.11;97878.69;5054582;28;20087;-79
2024/03/27 04:23:13;;;;;;;31.58;17.55;;;3.50;99.90;;;8.65;96.23;97887.91;5060313;28;20048;-79
2024/03/27 04:25:47;;;;;;;33.60;18.50;;;3.40;99.90;;;8.60;94.80;97890.63;5065223;28;20037;-78
2024/03/27 04:28:14;;;;;;;34.80;18.73;;;3.40;99.90;;;8.35;97.92;97894.91;5048360;28;20241;-78
2024/03/27 04:30:41;;;;;;;31.57;16.87;;;3.50;99.90;;;8.01;99.75;97888.06;5060186;28;20060;-79
2024/03/27 04:33:08;;;;;;;34.27;19.53;;;3.60;99.90;;;7.80;100.00;97889.91;5054283;28;20037;-79
2024/03/27 04:35:34;;;;;;;31.95;17.95;;;3.50;99.90;;;8.04;100.00;97886.72;5036145;28;20463;-79
2024/03/27 04:38:00;;;;;;;33.50;18.40;;;3.60;99.90;;;7.57;100.00;97883.03;5036239;28;20051;-79
2024/03/27 04:40:25;;;;;;;35.13;18.45;;;3.60;99.90;;;7.90;100.00;97883.69;5053829;28;20040;-79
2024/03/27 04:42:51;;;;;;;32.08;18.58;;;3.60;99.90;;;8.32;100.00;97873.72;5057756;28;20501;-79
2024/03/27 04:45:17;;;;;;;35.58;18.38;;;3.50;99.90;;;8.40;97.05;97869.66;5072178;28;20037;-78
2024/03/27 04:47:43;;;;;;;31.25;17.58;;;3.40;99.90;;;8.31;95.47;97886.47;5072901;28;20049;-78
2024/03/27 04:50:09;;;;;;;32.30;17.92;;;3.30;99.90;;;7.65;100.00;97884.41;5075959;28;20037;-78
2024/03/27 04:52:35;;;;;;;35.25;18.08;;;3.20;99.90;;;7.57;100.00;97883.84;5076529;28;20063;-78
2024/03/27 04:55:03;;;;;;;32.33;17.98;;;3.10;99.90;;;7.50;100.00;97888.69;5052616;28;20036;-78
2024/03/27 04:57:30;;;;;;;34.03;18.20;;;3.00;99.90;;;7.89;100.00;97895.63;5071027;28;20047;-78
2024/03/27 04:59:56;;;;;;;30.48;17.88;;;2.90;99.90;;;7.97;99.42;97876.09;5070395;28;20513;-76
2024/03/27 05:02:21;;;;;;;35.05;19.00;;;2.80;99.90;;;7.77;98.82;97874.16;5057584;28;20151;-78
2024/03/27 05:04:47;;;;;;;32.83;18.55;;;2.80;99.90;;;7.77;99.29;97868.72;5036702;28;20036;-78
2024/03/27 05:07:13;;;;;;;34.03;18.17;;;2.80;99.90;;;7.78;99.00;97848.66;5054619;28;20384;-78
2024/03/27 05:09:39;;;;;;;39.40;19.05;;;2.70;99.90;;;7.67;99.11;97860.53;5055786;28;20033;-78
2024/03/27 05:12:05;;;;;;;32.25;18.40;;;2.70;99.90;;;7.75;99.66;97865.47;5055951;28;20044;-79
2024/03/27 05:14:30;;;;;;;33.05;18.17;;;2.60;99.90;;;7.67;99.69;97855.09;5055021;28;20044;-78
2024/03/27 05:16:56;;;;;;;30.25;17.80;;;2.60;99.90;;;7.79;98.25;97861.13;5053873;28;20392;-78
2024/03/27 05:19:23;;;;;;;34.60;18.40;;;2.50;99.90;;;7.84;97.71;97854.91;5054299;28;20044;-77
2024/03/27 05:21:50;;;;;;;33.72;18.35;;;2.50;99.90;;;7.81;97.28;97837.25;5036570;28;20033;-79
2024/03/27 05:24:17;;;;;;;32.42;18.35;;;2.60;99.90;;;7.62;99.95;97842.34;5054087;28;20484;-78
2024/03/27 05:26:42;;;;;;;35.22;19.30;;;2.60;99.90;;;7.67;99.08;97836.09;5053778;28;20052;-79
2024/03/27 05:29:09;;;;;;;36.53;18.77;;;2.50;99.90;;;7.09;100.00;97837.78;5046970;28;20017;-78
2024/03/27 05:31:56;;;;;;;32.50;18.27;;;2.60;99.90;;;7.62;100.00;97829.59;5056777;28;20045;-79
2024/03/27 05:34:24;;;;;;;36.90;18.95;;;2.60;99.90;;;7.81;99.78;97829.09;5052899;28;20025;-79
2024/03/27 05:36:50;;;;;;;;;;;2.50;99.90;;;7.81;99.36;97828.28;5053195;28;20139;-79
2024/03/27 05:39:16;;;;;;;37.05;18.58;;;2.50;99.90;;;7.65;99.62;97822.81;5053549;28;20431;-79
2024/03/27 05:41:45;;;;;;;34.63;18.25;;;2.50;99.90;;;7.78;98.53;97832.34;5053580;28;20105;-79
2024/03/27 05:44:11;;;;;;;32.33;17.50;;;2.50;99.90;;;7.74;97.87;97839.41;5035687;28;20485;-78
2024/03/27 05:46:39;;;;;;;38.72;19.73;;;2.50;99.90;;;7.49;100.00;97855.31;5054253;28;20033;-79
2024/03/27 05:49:05;;;;;;;37.25;18.80;;;2.60;99.90;;;7.81;100.00;97853.53;5053700;28;20044;-78
2024/03/27 05:51:36;;;;;;;33.40;19.33;;;2.70;99.90;;;7.98;98.37;97868.78;5044459;28;20041;-78
2024/03/27 05:54:03;;;;;;;34.10;18.08;;;2.70;99.90;;;7.73;98.24;97851.34;5056871;28;20448;-79
2024/03/27 05:56:29;;;;;;;34.97;18.20;;;2.70;99.90;;;7.40;99.84;97866.94;5052705;28;20041;-79
2024/03/27 05:58:56;;;;;;;35.15;18.70;;;2.70;99.90;;;6.94;100.00;97873.75;5035406;28;20072;-79
2024/03/27 06:01:22;;;;;;;35.45;19.17;;;2.70;99.90;;;7.27;100.00;97893.47;5035852;28;20120;-79
2024/03/27 06:03:50;;;;;;;37.63;21.30;;;2.80;99.90;;;7.55;100.00;97893.31;5053306;28;20033;-79
2024/03/27 06:06:16;;;;;;;35.03;20.08;;;2.90;99.90;;;7.25;100.00;97894.78;5053431;28;20058;-79
2024/03/27 06:08:44;;;;;;;34.20;19.33;;;3.10;99.90;;;7.46;100.00;97901.97;5053089;28;20449;-79
2024/03/27 06:11:10;;;;;;;38.85;20.80;;;3.20;99.90;;;7.96;100.00;97890.75;5053298;28;20492;-79
2024/03/27 06:13:36;;;;;;;35.85;19.35;;;3.30;99.90;;;8.38;100.00;97905.25;5053350;28;20051;-79
2024/03/27 06:16:01;;;;;;;34.28;19.35;;;3.40;99.90;;;8.08;100.00;97890.53;5019223;28;20032;-78
2024/03/27 06:18:27;;;;;;;36.60;19.38;;;3.50;99.90;;;7.88;100.00;97894.81;5035374;28;20370;-78
2024/03/27 06:20:53;;;;;;;36.50;19.58;;;3.60;99.90;;;8.53;100.00;97896.31;5019168;28;20166;-79
2024/03/27 06:23:19;;;;;;;34.05;19.42;;;3.70;99.90;;;8.90;98.32;97897.97;5035452;28;20040;-79
2024/03/27 06:25:59;;;;;;;37.55;19.80;;;3.80;99.90;;;8.91;95.20;97905.03;5053106;28;20029;-79
2024/03/27 06:28:26;;;;;;;34.65;19.23;;;3.90;99.90;;;9.20;94.22;97896.28;5054375;28;20037;-79
2024/03/27 06:31:00;;;;;;;36.03;20.33;;;4.10;99.90;;;9.51;92.24;97903.53;5056372;28;20040;-79
2024/03/27 06:33:27;;;;;;;37.22;20.38;;;4.30;99.90;;;9.71;90.79;97885.53;5056120;28;20041;-79
2024/03/27 06:35:53;;;;;;;29.60;18.77;;;4.40;99.90;;;9.72;88.84;97881.69;5038411;28;20489;-79
2024/03/27 06:38:21;;;;;;;31.25;17.80;;;4.60;99.90;;;9.90;87.57;97881.09;5038338;28;20345;-79
2024/03/27 06:40:47;;;;;;;30.15;17.90;;;4.80;99.90;;;10.14;86.28;97872.25;5038597;28;20099;-78
2024/03/27 06:43:14;;;;;;;29.45;17.63;;;5.00;99.90;;;10.53;86.39;97886.16;5056072;28;20124;-79
2024/03/27 06:45:42;;;;;;;30.53;18.27;;;5.20;99.90;;;10.72;85.23;97887.13;5055926;28;20037;-79
2024/03/27 06:48:08;;;;;;;;;;;5.40;99.90;;;10.20;86.11;97883.91;5056481;28;20331;-79
2024/03/27 06:50:34;;;;;;;31.10;18.10;;;5.60;99.90;;;10.13;87.21;97880.69;5037786;28;19920;-79
2024/03/27 06:52:59;;;;;;;28.55;16.58;;;5.70;99.90;;;9.82;87.85;97889.84;5038070;28;20426;-79
2024/03/27 06:55:25;;;;;;;27.48;15.80;;;5.80;99.90;;;10.27;87.39;97891.75;5055745;28;20114;-79
2024/03/27 06:57:51;;;;;;;25.67;15.60;;;6.00;99.90;;;10.78;85.10;97882.44;5056017;28;20055;-78
2024/03/27 07:00:17;;;;;;;32.10;15.65;;;6.20;99.90;;;11.05;82.61;97871.00;5055717;28;20056;-79
2024/03/27 07:02:46;;;;;;;24.83;14.50;;;6.40;99.90;;;10.74;80.57;97875.91;5055873;28;20033;-79
2024/03/27 07:05:12;;;;;;;22.00;14.05;;;6.50;99.90;;;11.32;78.45;97877.81;5056100;28;20044;-79
2024/03/27 07:07:38;;;;;;;25.55;14.32;;;6.70;99.90;;;11.30;79.85;97874.56;5055831;28;20041;-79
2024/03/27 07:10:04;;;;;;;23.42;13.63;;;6.80;99.90;;;11.89;78.49;97873.63;5055920;28;20234;-80
2024/03/27 07:12:29;;;;;;;24.13;14.98;;;7.00;99.90;;;11.68;78.14;97867.59;5054410;28;20037;-79
2024/03/27 07:14:55;;;;;;;24.27;14.98;;;7.20;99.90;;;11.33;81.03;97870.44;5055801;28;20037;-81
2024/03/27 07:17:21;;;;;;;21.65;12.77;;;7.40;99.90;;;11.08;83.05;97886.78;5056246;28;20033;-78
2024/03/27 07:19:48;;;;;;;19.48;12.70;;;7.50;99.90;;;11.01;85.91;97882.78;5038500;28;20052;-80
2024/03/27 07:22:15;;;;;;;19.75;12.23;;;7.60;99.90;;;11.00;83.85;97884.69;5056544;28;20033;-80
2024/03/27 07:24:41;;;;;;;21.55;12.55;;;7.70;99.90;;;11.21;81.13;97873.56;5038278;28;20029;-80
2024/03/27 07:27:07;;;;;;;24.10;12.85;;;7.70;99.90;;;11.63;82.90;97874.72;5037630;28;20485;-79
2024/03/27 07:29:35;;;;;;;22.95;12.25;;;7.90;99.90;;;11.42;83.88;97865.97;5055124;28;20048;-79
2024/03/27 07:32:01;;;;;;;21.88;12.23;;;8.10;99.90;;;11.55;81.92;97875.38;5055201;28;20036;-78
2024/03/27 07:34:27;;;;;;;20.88;11.35;;;8.30;99.90;;;11.63;78.96;97863.00;5055203;28;20116;-79
2024/03/27 07:36:53;;;;;;;20.63;11.57;;;8.30;99.90;;;11.94;78.36;97860.72;5037251;28;20090;-79
2024/03/27 07:39:19;;;;;;;18.52;11.75;;;8.60;99.90;;;12.52;76.83;97877.94;5036217;28;20443;-78
2024/03/27 07:41:45;;;;;;;16.15;9.95;;;8.90;99.90;;;12.70;72.94;97853.56;5054939;28;20044;-79
2024/03/27 07:44:11;;;;;;;14.15;9.98;;;9.10;99.90;;;13.04;70.14;97844.25;5037109;28;20048;-79
2024/03/27 07:46:37;;;;;;;15.30;9.48;;;9.40;99.90;;;13.06;70.47;97850.22;5037039;28;20037;-79
2024/03/27 07:49:03;;;;;;;16.65;10.48;;;9.60;99.90;;;13.17;69.40;97852.75;5054766;28;20036;-79
2024/03/27 07:51:29;;;;;;;15.60;9.20;;;9.70;99.90;;;13.24;68.70;97855.91;5054775;28;20119;-79
2024/03/27 07:53:54;;;;;;;16.05;9.45;;;9.90;99.90;;;13.36;71.21;97875.41;5036890;28;20128;-79
2024/03/27 07:56:20;;;;;;;15.70;8.95;;;10.00;99.90;;;13.54;68.67;97842.78;5054863;28;20044;-78
2024/03/27 07:58:46;;;;;;;15.25;9.77;;;10.10;99.90;;;13.79;71.38;97860.59;5054320;28;20044;-78
2024/03/27 08:01:12;;;;;;;14.75;9.70;;;10.30;99.90;;;14.06;69.86;97856.19;5054681;28;20044;-79
2024/03/27 08:03:38;;;;;;;15.30;9.55;;;;;;;14.25;69.24;97855.25;5036783;28;20041;-79
2024/03/27 08:06:04;;;;;;;13.35;8.57;;;;;;;14.47;66.47;97851.69;5054447;28;20107;-79
2024/03/27 08:08:30;;;;;;;14.30;9.00;;;;;;;14.66;66.92;97851.50;5036613;28;20511;-79
2024/03/27 08:10:57;;;;;;;12.80;8.43;;;;;;;14.57;65.41;97836.94;5036534;28;20041;-78
2024/03/27 08:13:24;;;;;;;13.48;8.50;;;;;;;14.79;64.66;97838.06;5054418;28;20091;-79
2024/03/27 08:15:50;;;;;;;13.75;7.90;;;;;;;14.91;62.76;97829.28;5036462;28;20350;-79
2024/03/27 08:18:17;;;;;;;9.43;6.55;;;;;;;15.01;58.43;97800.75;5055198;28;20071;-79
2024/03/27 08:20:55;;;;;;;10.88;6.40;;;;;;;15.28;57.69;97791.47;5055773;28;20048;-79
2024/03/27 08:23:21;;;;;;;11.23;6.20;;;;;;;15.47;55.98;97788.44;5054226;28;20037;-79
2024/03/27 08:25:47;;;;;;;8.73;6.10;;;;;;;15.15;54.67;97767.69;5054198;28;20041;-78
2024/03/27 08:28:14;;;;;;;11.38;6.53;;;;;;;15.32;54.67;97772.44;5054232;28;20040;-78
2024/03/27 08:30:43;;;;;;;9.73;6.38;;;;;;;15.60;58.23;97800.44;5036260;28;20067;-78
2024/03/27 08:33:10;;;;;;;11.02;6.75;;;;;;;15.70;53.65;97765.56;5054138;28;20552;-78
2024/03/27 08:35:37;;;;;;;10.75;6.57;;;;;;;16.10;53.17;97771.75;5036036;28;20439;-79
2024/03/27 08:38:04;;;;;;;9.00;6.20;;;;;;;16.01;52.27;97753.66;5053950;28;20098;-79
2024/03/27 08:40:30;;;;;;;9.93;6.15;;;;;;;16.16;52.44;97766.88;5053971;28;20029;-78
2024/03/27 08:42:56;;;;;;;9.25;5.97;;;;;;;16.25;51.14;97767.72;5053938;28;20037;-79
2024/03/27 08:45:23;;;;;;;9.60;6.05;;;;;;;16.81;53.17;97797.22;5053908;28;20083;-79
2024/03/27 08:47:49;;;;;;;8.63;5.32;;;;;;;16.55;50.09;97767.00;5035961;28;20037;-79
2024/03/27 08:50:15;;;;;;;8.15;5.45;;;;;;;16.38;50.52;97774.16;5019329;28;20064;-79
2024/03/27 08:52:42;;;;;;;8.75;5.88;;;;;;;17.04;50.58;97780.50;5053714;28;20095;-79
2024/03/27 08:55:09;;;;;;;8.98;5.35;;;;;;;17.16;50.32;97790.00;5053739;28;20039;-79
2024/03/27 08:57:35;;;;;;;8.60;5.65;;;;;;;16.92;50.49;97796.88;5053481;28;20043;-79
2024/03/27 09:00:05;;;;;;;9.38;6.35;;;;;;;16.90;50.21;97799.97;5053410;28;20063;-80
2024/03/27 09:02:31;;;;;;;9.30;5.38;;;;;;;17.09;50.04;97801.53;5035740;28;20037;-81
2024/03/27 09:04:57;;;;;;;9.23;6.03;;;;;;;16.90;49.90;97797.22;5053610;28;20439;-80
2024/03/27 09:07:24;;;;;;;8.88;6.30;;;;;;;17.36;52.59;97833.38;5035713;28;20041;-80
2024/03/27 09:09:50;;;;;;;9.57;5.90;;;;;;;17.66;51.17;97814.09;5053880;28;20044;-80
2024/03/27 09:12:17;;;;;;;11.40;6.07;;;;;;;17.20;50.81;97808.31;5058553;28;20049;-80
2024/03/27 09:14:43;;;;;;;8.88;5.90;;;;;;;17.05;50.80;97800.59;5041682;28;20068;-79
2024/03/27 09:17:09;;;;;;;10.02;5.75;;;;;;;17.07;51.36;97803.81;5054109;28;20048;-80
2024/03/27 09:19:38;;;;;;;9.02;5.85;;;;;;;17.22;50.40;97780.41;5035263;28;20489;-80
2024/03/27 09:22:05;;;;;;;8.93;6.20;;;;;;;17.56;52.55;97811.72;5035460;28;20049;-80
2024/03/27 09:24:31;;;;;;;8.13;6.13;;;;;;;17.90;49.75;97796.09;5053172;28;20063;-80
2024/03/27 09:26:57;;;;;;;9.98;5.72;;;;;;;17.67;49.99;97799.16;5052835;28;20032;-80
2024/03/27 09:29:23;;;;;;;8.70;5.63;;;;;;;17.55;49.87;97799.06;5018659;28;20037;-80
2024/03/27 09:31:50;;;;;;;9.43;6.10;;;;;;;17.15;49.31;97786.47;5035074;28;20072;-80
2024/03/27 09:34:17;;;;;;;10.50;5.93;;;;;;;17.71;50.53;97810.34;5034872;28;20083;-80
2024/03/27 09:36:43;;;;;;;7.68;5.80;;;;;;;17.79;49.02;97786.63;5035032;28;20427;-80
2024/03/27 09:39:10;;;;;;;11.15;5.75;;;;;;;17.83;48.06;97779.28;5052848;28;20041;-80
2024/03/27 09:41:36;;;;;;;7.80;5.60;;;;;;;18.17;48.87;97782.13;5034737;28;20044;-79
2024/03/27 09:44:06;;;;;;;10.18;5.30;;;;;;;18.71;49.16;97794.31;5018393;28;20061;-80
2024/03/27 09:46:36;;;;;;;8.45;5.63;;;;;;;18.77;46.37;97757.03;5052495;28;20068;-79
2024/03/27 09:49:04;;;;;;;8.30;5.95;;;;;;;19.30;46.88;97779.34;5052779;28;20158;-79
2024/03/27 09:51:33;;;;;;;9.05;5.63;;;;;;;19.72;46.21;97774.72;5052466;28;20040;-78
2024/03/27 09:54:05;;;;;;;10.35;5.57;;;;;;;19.83;45.11;97765.59;5052601;28;20036;-79
2024/03/27 09:56:35;;;;;;;11.20;5.65;;;;;;;20.08;45.63;97768.31;5052567;28;20086;-79
2024/03/27 09:59:01;;;;;;;7.40;5.38;;;;;;;20.01;45.31;97765.34;5052308;28;20430;-79
2024/03/27 10:01:27;;;;;;;7.03;5.28;;;;;;;19.69;43.91;97732.78;5034651;28;20037;-81
2024/03/27 10:03:55;;;;;;;8.38;5.80;;;;;;;20.23;44.72;97741.88;5051740;28;20052;-80
2024/03/27 10:06:21;;;;;;;8.30;5.55;;;;;;;21.09;44.72;97756.41;5034497;28;20041;-80
2024/03/27 10:08:47;;;;;;;7.43;5.20;;;;;;;21.22;42.55;97729.41;5052202;28;20057;-80
2024/03/27 10:11:15;;;;;;;9.27;5.22;;;;;;;21.78;41.38;97715.63;5052336;28;20384;-82
2024/03/27 10:13:41;;;;;;;7.25;5.10;;;;;;;21.97;38.32;97674.00;5052338;28;20389;-80
2024/03/27 10:16:10;;;;;;;8.70;5.30;;;;;;;23.00;38.37;97702.44;5034478;28;20110;-80
2024/03/27 10:18:39;;;;;;;7.80;5.18;;;;;;;23.53;37.82;97698.94;5052167;28;20386;-80
2024/03/27 10:21:05;;;;;;;8.15;5.05;;;;;;;23.51;37.33;97689.34;5034463;28;20040;-80
2024/03/27 10:23:32;;;;;;;7.43;5.05;;;;;;;23.27;36.71;97672.72;5052302;28;20037;-80
2024/03/27 10:26:05;;;;;;;9.15;5.53;;;;;;;22.93;37.05;97683.69;5052164;28;20094;-83
2024/03/27 10:28:35;;;;;;;8.52;5.47;;;;;;;22.43;38.12;97672.47;5052208;28;20045;-80
2024/03/27 10:31:04;;;;;;;11.82;4.90;;;;;;;23.01;37.87;97694.94;5034511;28;20480;-80